Terminal Aerodrome Forecast
Issued by NWS

Home | Current Version | Previous Version | Text Only | Print | Product List | Glossary Off
Versions: 1 2 3 4 5 6 7 8 9 10 11 12 13 14 15 16 17 18 19 20

000
FTUS44 KTSA 080520
TAFXNA
TAF
KXNA 080520Z 0806/0906 15005KT P6SM VCSH OVC050
     FM080800 15005KT 5SM -SHRA BR OVC025
      TEMPO 0809/0813 2SM SHRA OVC012
     FM081300 19012KT 4SM -RA OVC008
      TEMPO 0813/0817 2SM TSRA BKN005CB
     FM081700 18012KT 4SM -RA OVC012
      TEMPO 0817/0821 2SM TSRA BKN008CB
     FM082100 21010KT 6SM -SHRA OVC015
     FM090100 18005KT P6SM OVC015=

USA.gov is the U.S. government's official web portal to all federal, state and local government web resources and services.